createdAt,value
2022-08-03T00:00:39.057Z,57.81
2022-08-03T00:01:41.523Z,58.04
2022-08-03T00:02:42.982Z,58.11
2022-08-03T00:03:44.749Z,58.01
2022-08-03T00:04:46.956Z,57.98
2022-08-03T00:06:03.966Z,57.67
2022-08-03T00:07:06.383Z,57.98
2022-08-03T00:08:07.896Z,57.92
2022-08-03T00:09:10.025Z,57.32
2022-08-03T00:10:13.506Z,57.53
2022-08-03T00:11:15.057Z,57.45
2022-08-03T00:12:16.905Z,58.18
2022-08-03T00:13:19.876Z,58.22
2022-08-03T00:14:21.682Z,58.24
2022-08-03T00:15:23.310Z,58.14
2022-08-03T00:16:26.351Z,58.26
2022-08-03T00:17:27.796Z,58.33
2022-08-03T00:18:29.319Z,58.13
2022-08-03T00:19:31.280Z,58.15
2022-08-03T00:20:32.854Z,58.17
2022-08-03T00:21:34.814Z,58.32
2022-08-03T00:22:36.343Z,58.09
2022-08-03T00:23:52.121Z,58.13
2022-08-03T00:24:54.619Z,58.12
2022-08-03T00:25:56.555Z,58.31
2022-08-03T00:26:58.014Z,58.44
2022-08-03T00:27:59.518Z,58.39
2022-08-03T00:29:01.379Z,58.64
2022-08-03T00:30:03.439Z,58.91
2022-08-03T00:31:04.976Z,58.53
2022-08-03T00:32:06.552Z,58.45
2022-08-03T00:33:12.442Z,58.92
2022-08-03T00:34:16.150Z,58.73
2022-08-03T00:35:29.975Z,58.47
2022-08-03T00:36:38.675Z,58.41
2022-08-03T00:37:41.482Z,58.49
2022-08-03T00:38:43.375Z,57.87
2022-08-03T00:39:47.558Z,57.75
2022-08-03T00:40:49.193Z,58.02
2022-08-03T00:41:50.737Z,58.71
2022-08-03T00:42:58.478Z,58.85
2022-08-03T00:43:59.976Z,58.67
2022-08-03T00:45:01.790Z,58.41
2022-08-03T00:46:03.299Z,58.45
2022-08-03T00:47:04.885Z,58.75
2022-08-03T00:48:29.500Z,58.92
2022-08-03T00:49:30.306Z,59.35
2022-08-03T00:50:35.074Z,59.33
2022-08-03T00:51:36.558Z,59.06
2022-08-03T00:52:38.038Z,58.90
2022-08-03T00:53:39.707Z,58.73
2022-08-03T00:54:41.271Z,58.59
2022-08-03T00:55:44.047Z,58.45
2022-08-03T00:56:59.477Z,58.47
2022-08-03T00:58:06.582Z,58.38
2022-08-03T00:59:10.659Z,57.99
2022-08-03T01:00:26.599Z,58.42
2022-08-03T01:01:32.175Z,58.74
2022-08-03T01:02:34.126Z,59.05
2022-08-03T01:03:35.663Z,58.91
2022-08-03T01:04:37.173Z,58.46
2022-08-03T01:06:10.492Z,58.26
2022-08-03T01:07:30.198Z,58.77
2022-08-03T01:08:42.596Z,58.96
2022-08-03T01:10:23.262Z,59.28
2022-08-03T01:12:00.935Z,59.33
2022-08-03T01:13:59.910Z,59.38
2022-08-03T01:14:54.691Z,59.58
2022-08-03T01:16:14.888Z,59.47
2022-08-03T01:17:25.255Z,59.54
2022-08-03T01:18:43.729Z,59.53
2022-08-03T01:20:08.675Z,59.90
2022-08-03T01:21:14.660Z,59.71
2022-08-03T01:22:37.141Z,59.95
2022-08-03T01:24:03.800Z,59.92
2022-08-03T01:25:24.802Z,60.08
2022-08-03T01:26:44.851Z,60.56
2022-08-03T01:28:02.768Z,60.50
2022-08-03T01:29:17.312Z,60.65
2022-08-03T01:30:19.992Z,60.64
2022-08-03T01:31:26.196Z,60.74
2022-08-03T01:32:59.365Z,60.64
2022-08-03T01:34:00.462Z,60.73
2022-08-03T01:35:11.069Z,60.48
2022-08-03T01:36:22.553Z,60.19
2022-08-03T01:37:28.084Z,60.10
2022-08-03T01:38:33.739Z,60.53
2022-08-03T01:39:38.182Z,60.53
2022-08-03T01:40:41.679Z,60.68
2022-08-03T01:41:53.344Z,60.53
2022-08-03T01:42:57.521Z,60.45
2022-08-03T01:44:29.986Z,60.60
2022-08-03T01:45:25.035Z,60.84
2022-08-03T01:46:26.943Z,60.76
2022-08-03T01:47:30.544Z,60.54
2022-08-03T01:48:33.244Z,60.58
2022-08-03T01:49:39.467Z,60.34
2022-08-03T01:50:42.449Z,60.61
2022-08-03T01:51:58.384Z,60.92
2022-08-03T01:53:09.273Z,60.95
2022-08-03T01:54:12.637Z,60.54
2022-08-03T01:55:19.276Z,60.38
2022-08-03T01:56:24.262Z,60.37
2022-08-03T01:57:29.109Z,60.41
2022-08-03T01:58:33.659Z,60.46
2022-08-03T01:59:37.516Z,60.48
2022-08-03T02:00:40.935Z,60.22
2022-08-03T02:02:29.788Z,60.75
2022-08-03T02:03:07.190Z,61.06
2022-08-03T02:04:10.863Z,61.00
2022-08-03T02:05:14.760Z,61.00
2022-08-03T02:07:01.813Z,61.22
2022-08-03T02:07:43.066Z,61.72
2022-08-03T02:08:45.360Z,61.89
2022-08-03T02:09:51.630Z,61.85
2022-08-03T02:10:57.599Z,61.98
2022-08-03T02:12:00.766Z,61.87
2022-08-03T02:13:04.305Z,61.43
2022-08-03T02:14:06.673Z,61.81
2022-08-03T02:15:09.300Z,61.67
2022-08-03T02:16:14.390Z,61.38
2022-08-03T02:17:16.253Z,61.72
2022-08-03T02:18:19.044Z,61.52
2022-08-03T02:19:21.690Z,61.41
2022-08-03T02:20:24.567Z,61.58
2022-08-03T02:21:55.602Z,61.42
2022-08-03T02:22:49.619Z,60.81
2022-08-03T02:23:51.080Z,60.89
2022-08-03T02:24:52.535Z,61.44
2022-08-03T02:25:59.874Z,61.45
2022-08-03T02:27:06.042Z,61.52
2022-08-03T02:28:15.875Z,61.57
2022-08-03T02:29:21.770Z,61.73
2022-08-03T02:30:45.828Z,61.73
2022-08-03T02:31:58.138Z,61.09
2022-08-03T02:33:02.034Z,60.89
2022-08-03T02:34:08.750Z,60.67
2022-08-03T02:35:13.323Z,60.38
2022-08-03T02:36:20.037Z,60.76
2022-08-03T02:37:23.862Z,60.82
2022-08-03T02:38:31.288Z,61.25
2022-08-03T02:39:35.672Z,61.37
2022-08-03T02:40:39.616Z,60.92
2022-08-03T02:41:52.992Z,61.16
2022-08-03T02:42:57.978Z,61.53
2022-08-03T02:44:06.965Z,61.27
2022-08-03T02:45:14.902Z,61.26
2022-08-03T02:46:20.153Z,61.54
2022-08-03T02:47:22.560Z,62.04
2022-08-03T02:48:28.650Z,62.85
2022-08-03T02:49:40.551Z,62.75
2022-08-03T02:50:54.783Z,62.55
2022-08-03T02:51:59.316Z,62.39
2022-08-03T02:53:03.019Z,62.17
2022-08-03T02:54:06.407Z,62.38
2022-08-03T02:55:10.921Z,62.58
2022-08-03T02:56:14.773Z,62.99
2022-08-03T02:57:18.929Z,63.32
2022-08-03T02:58:23.596Z,63.77
2022-08-03T02:59:27.570Z,64.25
2022-08-03T03:00:31.906Z,64.52
2022-08-03T03:01:34.245Z,65.12
2022-08-03T03:02:37.066Z,64.97
2022-08-03T03:03:45.054Z,65.20
2022-08-03T03:05:52.133Z,65.40
2022-08-03T03:06:13.415Z,64.91
2022-08-03T03:07:17.976Z,64.95
2022-08-03T03:08:26.858Z,64.55
2022-08-03T03:09:41.492Z,64.17
2022-08-03T03:10:45.195Z,64.24
2022-08-03T03:11:49.322Z,64.33
2022-08-03T03:12:55.163Z,64.57
2022-08-03T03:13:57.561Z,64.60
2022-08-03T03:14:59.085Z,64.79
2022-08-03T03:16:02.562Z,63.98
2022-08-03T03:17:05.284Z,64.00
2022-08-03T03:18:09.989Z,64.25
2022-08-03T03:19:14.188Z,64.23
2022-08-03T03:20:16.022Z,63.76
2022-08-03T03:21:33.468Z,63.57
2022-08-03T03:22:36.126Z,63.77
2022-08-03T03:23:39.942Z,63.58
2022-08-03T03:24:44.075Z,64.15
2022-08-03T03:25:46.031Z,64.14
2022-08-03T03:26:49.112Z,64.14
2022-08-03T03:27:51.181Z,64.03
2022-08-03T03:28:52.885Z,64.15
2022-08-03T03:29:54.694Z,64.75
2022-08-03T03:30:56.510Z,64.75
2022-08-03T03:31:58.423Z,64.83
2022-08-03T03:33:02.983Z,64.99
2022-08-03T03:34:05.135Z,65.19
2022-08-03T03:35:09.729Z,65.11
2022-08-03T03:36:11.599Z,64.55
2022-08-03T03:37:13.097Z,64.81
2022-08-03T03:38:14.649Z,64.88
2022-08-03T03:39:16.245Z,64.08
2022-08-03T03:40:17.836Z,63.49
2022-08-03T03:41:19.773Z,63.32
2022-08-03T03:42:22.336Z,63.69
2022-08-03T03:43:24.835Z,63.64
2022-08-03T03:44:28.629Z,63.84
2022-08-03T03:45:31.097Z,63.87
2022-08-03T03:46:33.276Z,63.63
2022-08-03T03:47:35.837Z,63.34
2022-08-03T03:48:38.887Z,63.30
2022-08-03T03:49:42.939Z,63.39
2022-08-03T03:50:45.570Z,63.80
2022-08-03T03:51:47.392Z,64.81
2022-08-03T03:52:48.853Z,65.64
2022-08-03T03:54:01.985Z,65.63
2022-08-03T03:55:03.820Z,65.30
2022-08-03T03:56:05.698Z,65.51
2022-08-03T03:57:07.234Z,65.02
2022-08-03T03:58:09.052Z,64.66
2022-08-03T03:59:10.910Z,65.20
2022-08-03T04:00:15.269Z,65.21
2022-08-03T04:01:17.671Z,65.07
2022-08-03T04:02:19.165Z,64.70
2022-08-03T04:03:20.676Z,64.95
2022-08-03T04:04:40.863Z,64.29
2022-08-03T04:06:01.753Z,63.44
2022-08-03T04:07:22.227Z,63.27
2022-08-03T04:08:41.988Z,63.30
2022-08-03T04:10:08.789Z,63.27
2022-08-03T04:11:38.604Z,63.14
2022-08-03T04:12:50.150Z,63.04
2022-08-03T04:14:05.243Z,62.38
2022-08-03T04:15:08.074Z,62.30
2022-08-03T04:16:14.837Z,62.56
2022-08-03T04:17:17.330Z,62.88
2022-08-03T04:18:20.065Z,62.81
2022-08-03T04:19:35.170Z,63.04
2022-08-03T04:20:37.510Z,63.10
2022-08-03T04:21:43.732Z,63.44
2022-08-03T04:22:47.988Z,64.18
2022-08-03T04:23:53.032Z,64.62
2022-08-03T04:25:01.082Z,64.43
2022-08-03T04:26:05.488Z,64.02
2022-08-03T04:27:09.464Z,64.00
2022-08-03T04:28:30.486Z,63.94
2022-08-03T04:29:34.976Z,63.77
2022-08-03T04:30:47.495Z,63.59
2022-08-03T04:31:50.014Z,63.64
2022-08-03T04:32:51.956Z,63.90
2022-08-03T04:33:54.573Z,64.10
2022-08-03T04:34:56.232Z,64.49
2022-08-03T04:36:02.915Z,64.91
2022-08-03T04:37:13.183Z,64.68
2022-08-03T04:38:18.485Z,65.35
2022-08-03T04:39:25.653Z,64.59
2022-08-03T04:40:37.080Z,64.90
2022-08-03T04:42:07.188Z,64.97
2022-08-03T04:43:02.297Z,65.42
2022-08-03T04:44:04.816Z,64.68
2022-08-03T04:45:08.062Z,64.49
2022-08-03T04:46:11.088Z,64.34
2022-08-03T04:47:12.917Z,64.28
2022-08-03T04:48:15.400Z,64.59
2022-08-03T04:49:17.423Z,64.39
2022-08-03T04:50:21.662Z,64.15
2022-08-03T04:51:23.624Z,63.65
2022-08-03T04:52:25.487Z,63.45
2022-08-03T04:53:27.020Z,63.55
2022-08-03T04:54:28.532Z,63.69
2022-08-03T04:55:32.026Z,63.85
2022-08-03T04:56:34.681Z,63.68
2022-08-03T04:57:36.208Z,63.50
2022-08-03T04:58:37.729Z,63.37
2022-08-03T04:59:40.941Z,64.03
2022-08-03T05:00:43.068Z,64.36
2022-08-03T05:01:44.688Z,64.25
2022-08-03T05:02:46.581Z,63.93
2022-08-03T05:03:48.058Z,63.85
2022-08-03T05:04:49.638Z,63.67
2022-08-03T05:06:01.859Z,63.49
2022-08-03T05:07:12.638Z,63.12
2022-08-03T05:08:14.193Z,63.23
2022-08-03T05:09:16.072Z,62.98
2022-08-03T05:10:37.535Z,63.10
2022-08-03T05:11:38.987Z,63.01
2022-08-03T05:12:41.325Z,62.97
2022-08-03T05:13:43.731Z,63.18
2022-08-03T05:14:45.170Z,63.33
2022-08-03T05:15:46.616Z,63.44
2022-08-03T05:16:48.060Z,63.53
2022-08-03T05:17:49.904Z,63.83
2022-08-03T05:18:51.431Z,63.81
2022-08-03T05:19:52.933Z,63.67
2022-08-03T05:20:54.361Z,63.88
2022-08-03T05:21:55.846Z,63.84
2022-08-03T05:22:58.231Z,63.48
2022-08-03T05:24:01.252Z,63.72
2022-08-03T05:25:04.008Z,64.21
2022-08-03T05:26:05.574Z,64.14
2022-08-03T05:27:07.001Z,63.73
2022-08-03T05:28:08.766Z,63.90
2022-08-03T05:29:10.253Z,63.78
2022-08-03T05:30:32.287Z,63.51
2022-08-03T05:31:33.479Z,63.35
2022-08-03T05:32:35.294Z,63.35
2022-08-03T05:33:36.762Z,63.20
2022-08-03T05:34:39.008Z,63.25
2022-08-03T05:36:02.677Z,63.20
2022-08-03T05:37:02.396Z,62.88
2022-08-03T05:38:04.206Z,62.47
2022-08-03T05:39:07.290Z,62.41
2022-08-03T05:40:09.396Z,62.58
2022-08-03T05:41:22.683Z,62.66
2022-08-03T05:42:25.827Z,62.64
2022-08-03T05:43:27.404Z,61.91
2022-08-03T05:44:29.155Z,62.09
2022-08-03T05:45:32.170Z,61.79
2022-08-03T05:46:33.625Z,61.75
2022-08-03T05:47:35.392Z,61.86
2022-08-03T05:48:36.854Z,61.64
2022-08-03T05:49:38.410Z,61.83
2022-08-03T05:50:42.764Z,61.16
2022-08-03T05:51:44.750Z,60.70
2022-08-03T05:52:47.035Z,60.43
2022-08-03T05:53:48.981Z,60.55
2022-08-03T05:54:55.819Z,60.35
2022-08-03T05:56:02.502Z,60.31
2022-08-03T05:57:17.447Z,60.28
2022-08-03T05:58:19.026Z,60.25
2022-08-03T05:59:37.653Z,60.43
2022-08-03T06:00:39.783Z,60.59
2022-08-03T06:01:41.307Z,60.77
2022-08-03T06:02:43.350Z,60.32
2022-08-03T06:03:45.900Z,60.21
2022-08-03T06:04:47.357Z,60.50
2022-08-03T06:05:55.545Z,59.98
2022-08-03T06:07:02.269Z,59.94
2022-08-03T06:08:04.015Z,60.14
2022-08-03T06:09:05.591Z,59.85
2022-08-03T06:10:36.753Z,59.77
2022-08-03T06:11:29.210Z,59.76
2022-08-03T06:12:31.463Z,59.67
2022-08-03T06:13:33.116Z,59.72
2022-08-03T06:14:34.584Z,59.37
2022-08-03T06:15:36.443Z,58.71
2022-08-03T06:16:37.992Z,58.19
2022-08-03T06:17:50.202Z,57.96
2022-08-03T06:18:51.683Z,58.03
2022-08-03T06:19:53.838Z,57.97
2022-08-03T06:20:55.762Z,58.27
2022-08-03T06:21:57.226Z,58.12
2022-08-03T06:23:00.502Z,58.19
2022-08-03T06:24:03.022Z,58.21
2022-08-03T06:25:11.270Z,57.86
2022-08-03T06:26:14.573Z,57.74
2022-08-03T06:27:16.473Z,56.93
2022-08-03T06:28:51.482Z,56.27
2022-08-03T06:29:40.154Z,55.96
2022-08-03T06:30:41.939Z,56.05
2022-08-03T06:31:43.439Z,56.39
2022-08-03T06:32:52.195Z,56.40
2022-08-03T06:34:33.748Z,56.26
2022-08-03T06:35:16.302Z,56.33
2022-08-03T06:36:17.782Z,56.21
2022-08-03T06:37:19.243Z,56.16
2022-08-03T06:38:21.217Z,56.55
2022-08-03T06:39:23.526Z,56.42
2022-08-03T06:40:29.813Z,56.35
2022-08-03T06:41:31.463Z,56.29
2022-08-03T06:42:39.548Z,56.58
2022-08-03T06:44:03.379Z,56.24
2022-08-03T06:45:04.057Z,55.93
2022-08-03T06:46:05.729Z,56.26
2022-08-03T06:47:07.205Z,55.89
2022-08-03T06:48:13.271Z,55.81
2022-08-03T06:49:14.787Z,56.19
2022-08-03T06:50:21.762Z,56.00
2022-08-03T06:52:05.656Z,55.91
2022-08-03T06:52:47.909Z,55.30
2022-08-03T06:53:49.929Z,54.98
2022-08-03T06:54:51.402Z,55.14
2022-08-03T06:55:54.833Z,55.75
2022-08-03T06:56:56.940Z,55.39
2022-08-03T06:57:59.305Z,55.46
2022-08-03T06:59:05.342Z,54.84
2022-08-03T07:00:12.280Z,53.60
2022-08-03T07:01:14.128Z,53.91
2022-08-03T07:02:20.389Z,53.42
2022-08-03T07:03:22.321Z,53.02
2022-08-03T07:04:23.782Z,53.35
2022-08-03T07:05:25.749Z,52.76
2022-08-03T07:06:27.373Z,52.55
2022-08-03T07:07:28.837Z,52.25
2022-08-03T07:08:33.338Z,52.01
2022-08-03T07:09:35.466Z,51.74
2022-08-03T07:10:37.233Z,51.61
2022-08-03T07:11:38.719Z,51.62
2022-08-03T07:12:56.194Z,51.60
2022-08-03T07:13:58.473Z,51.81
2022-08-03T07:15:02.631Z,51.66
2022-08-03T07:16:05.019Z,50.95
2022-08-03T07:17:11.442Z,51.14
2022-08-03T07:18:13.893Z,50.42
2022-08-03T07:19:15.615Z,50.55
2022-08-03T07:20:18.351Z,50.85
2022-08-03T07:21:19.831Z,50.90
2022-08-03T07:22:21.310Z,50.89
2022-08-03T07:23:23.081Z,49.47
2022-08-03T07:24:24.692Z,49.58
2022-08-03T07:25:28.968Z,49.50
2022-08-03T07:26:30.584Z,49.50
2022-08-03T07:27:32.229Z,49.72
2022-08-03T07:28:34.084Z,49.45
2022-08-03T07:29:36.009Z,49.45
2022-08-03T07:30:37.501Z,49.01
2022-08-03T07:31:38.961Z,48.94
2022-08-03T07:32:49.730Z,48.54
2022-08-03T07:33:52.759Z,48.86
2022-08-03T07:34:59.925Z,48.74
2022-08-03T07:36:02.296Z,48.48
2022-08-03T07:37:03.826Z,48.18
2022-08-03T07:38:05.351Z,47.28
2022-08-03T07:39:16.619Z,47.12
2022-08-03T07:40:20.111Z,47.02
2022-08-03T07:41:21.591Z,46.98
2022-08-03T07:42:26.232Z,46.94
2022-08-03T07:43:27.994Z,46.86
2022-08-03T07:44:29.468Z,46.50
2022-08-03T07:45:31.770Z,47.14
2022-08-03T07:46:33.442Z,47.39
2022-08-03T07:47:36.029Z,47.14
2022-08-03T07:48:37.927Z,47.20
2022-08-03T07:49:41.154Z,47.20
2022-08-03T07:50:42.873Z,47.02
2022-08-03T07:51:44.411Z,47.01
2022-08-03T07:52:49.350Z,46.84
2022-08-03T07:53:51.160Z,46.44
2022-08-03T07:54:54.570Z,46.21
2022-08-03T07:55:56.985Z,45.99
2022-08-03T07:56:58.431Z,45.81
2022-08-03T07:58:05.577Z,45.80
2022-08-03T07:59:07.083Z,45.91
2022-08-03T08:00:15.965Z,45.61
2022-08-03T08:01:19.462Z,44.46
2022-08-03T08:02:20.980Z,43.44
2022-08-03T08:03:23.569Z,44.04
2022-08-03T08:04:25.036Z,44.22
2022-08-03T08:05:26.708Z,44.19
2022-08-03T08:06:28.148Z,43.74
2022-08-03T08:07:29.895Z,42.91
2022-08-03T08:08:31.867Z,43.37
2022-08-03T08:09:34.184Z,43.26
2022-08-03T08:10:37.049Z,42.88
2022-08-03T08:11:40.084Z,42.00
2022-08-03T08:12:41.760Z,42.23
2022-08-03T08:13:43.226Z,42.21
2022-08-03T08:14:47.565Z,42.18
2022-08-03T08:15:49.013Z,42.46
2022-08-03T08:16:51.920Z,42.34
2022-08-03T08:17:59.042Z,42.25
2022-08-03T08:19:02.021Z,42.36
2022-08-03T08:20:03.830Z,42.16
2022-08-03T08:21:08.750Z,41.51
2022-08-03T08:22:10.255Z,41.74
2022-08-03T08:23:37.853Z,41.61
2022-08-03T08:24:34.903Z,41.35
2022-08-03T08:25:38.473Z,41.84
2022-08-03T08:26:39.963Z,41.90
2022-08-03T08:28:29.417Z,41.38
2022-08-03T08:29:07.326Z,41.46
2022-08-03T08:30:12.175Z,41.27
2022-08-03T08:31:13.778Z,41.20
2022-08-03T08:32:16.418Z,40.48
2022-08-03T08:33:23.369Z,40.44
2022-08-03T08:34:26.233Z,40.42
2022-08-03T08:35:27.891Z,40.08
2022-08-03T08:36:29.315Z,40.37
2022-08-03T08:37:30.801Z,40.49
2022-08-03T08:38:34.776Z,40.75
2022-08-03T08:39:36.221Z,40.79
2022-08-03T08:40:37.660Z,40.56
2022-08-03T08:41:39.231Z,40.13
2022-08-03T08:42:58.094Z,40.25
2022-08-03T08:44:01.066Z,40.34
2022-08-03T08:45:05.202Z,40.50
2022-08-03T08:46:11.998Z,40.16
2022-08-03T08:47:14.853Z,40.83
2022-08-03T08:48:20.488Z,40.49
2022-08-03T08:49:26.226Z,40.26
2022-08-03T08:50:28.504Z,39.51
2022-08-03T08:51:51.040Z,39.40
2022-08-03T08:53:01.047Z,38.97
2022-08-03T08:54:04.606Z,39.01
2022-08-03T08:55:08.387Z,38.63
2022-08-03T08:56:17.460Z,38.45
2022-08-03T08:57:40.667Z,38.16
2022-08-03T08:58:49.533Z,37.88
2022-08-03T08:59:57.167Z,38.14
2022-08-03T09:00:59.058Z,38.10
2022-08-03T09:02:01.180Z,37.74
2022-08-03T09:03:03.081Z,38.33
2022-08-03T09:04:07.350Z,38.36
2022-08-03T09:05:16.676Z,38.77
2022-08-03T09:06:18.093Z,38.88
2022-08-03T09:07:20.734Z,38.69
2022-08-03T09:08:23.231Z,38.14
2022-08-03T09:10:04.621Z,38.52
2022-08-03T09:10:46.488Z,38.90
2022-08-03T09:12:00.378Z,38.82
2022-08-03T09:13:10.576Z,39.24
2022-08-03T09:14:36.727Z,38.63
2022-08-03T09:15:34.130Z,38.31
2022-08-03T09:16:35.615Z,38.17
2022-08-03T09:17:41.086Z,38.29
2022-08-03T09:18:45.616Z,38.10
2022-08-03T09:20:10.247Z,38.20
2022-08-03T09:21:30.676Z,37.93
2022-08-03T09:22:33.512Z,37.49
2022-08-03T09:24:02.294Z,37.62
2022-08-03T09:25:23.915Z,38.16
2022-08-03T09:26:28.544Z,38.29
2022-08-03T09:27:42.622Z,38.25
2022-08-03T09:28:59.736Z,38.08
2022-08-03T09:30:33.559Z,38.12
2022-08-03T09:31:43.367Z,37.92
2022-08-03T09:32:46.322Z,37.75
2022-08-03T09:33:48.746Z,37.37
2022-08-03T09:34:56.538Z,37.60
2022-08-03T09:35:59.801Z,37.40
2022-08-03T09:37:01.311Z,37.60
2022-08-03T09:38:14.591Z,37.73
2022-08-03T09:39:40.991Z,38.10
2022-08-03T09:40:44.848Z,38.41
2022-08-03T09:41:48.794Z,38.39
2022-08-03T09:42:57.034Z,38.11
2022-08-03T09:43:59.087Z,38.13
2022-08-03T09:45:01.760Z,38.49
2022-08-03T09:46:07.747Z,37.47
2022-08-03T09:47:10.953Z,38.07
2022-08-03T09:48:35.025Z,37.75
2022-08-03T09:49:38.794Z,37.18
2022-08-03T09:50:57.135Z,33.70
2022-08-03T09:52:33.020Z,33.59
2022-08-03T09:53:51.492Z,33.90
2022-08-03T09:55:04.218Z,33.69
2022-08-03T09:56:33.783Z,33.33
2022-08-03T09:57:28.846Z,33.36
2022-08-03T09:58:31.329Z,33.02
2022-08-03T09:59:34.029Z,33.74
2022-08-03T10:01:04.473Z,33.06
2022-08-03T10:02:25.083Z,32.84
2022-08-03T10:03:29.242Z,32.40
2022-08-03T10:04:30.833Z,32.48
2022-08-03T10:05:33.476Z,32.59
2022-08-03T10:06:35.055Z,31.83
2022-08-03T10:07:47.641Z,31.15
2022-08-03T10:09:24.830Z,30.95
2022-08-03T10:10:29.322Z,31.08
2022-08-03T10:11:40.929Z,31.26
2022-08-03T10:12:44.961Z,31.55
2022-08-03T10:13:47.595Z,31.00
2022-08-03T10:14:49.430Z,31.40
2022-08-03T10:16:24.987Z,31.15
2022-08-03T10:17:13.363Z,31.18
2022-08-03T10:18:14.967Z,31.17
2022-08-03T10:19:17.438Z,31.46
2022-08-03T10:20:19.386Z,30.86
2022-08-03T10:21:21.582Z,30.66
2022-08-03T10:22:24.445Z,30.42
2022-08-03T10:23:27.834Z,30.65
2022-08-03T10:24:34.033Z,29.84
2022-08-03T10:25:38.100Z,29.85
2022-08-03T10:26:49.746Z,29.78
2022-08-03T10:27:53.126Z,28.28
2022-08-03T10:28:58.981Z,28.60
2022-08-03T10:30:09.323Z,29.25
2022-08-03T10:31:13.071Z,29.43
2022-08-03T10:32:21.440Z,29.41
2022-08-03T10:33:51.298Z,29.35
2022-08-03T10:35:00.325Z,29.34
2022-08-03T10:36:07.731Z,29.24
2022-08-03T10:37:12.451Z,29.60
2022-08-03T10:38:19.892Z,29.06
2022-08-03T10:39:24.112Z,29.32
2022-08-03T10:41:51.815Z,29.15
2022-08-03T10:42:56.643Z,29.58
2022-08-03T10:44:10.845Z,29.31
2022-08-03T10:45:20.871Z,29.76
2022-08-03T10:46:22.420Z,30.24
2022-08-03T10:47:24.280Z,30.23
2022-08-03T10:48:26.763Z,29.63
2022-08-03T10:49:34.557Z,29.59
2022-08-03T10:50:37.344Z,29.59
2022-08-03T10:51:39.356Z,29.42
2022-08-03T10:52:57.815Z,29.52
2022-08-03T10:54:01.794Z,28.67
2022-08-03T10:55:48.849Z,29.14
2022-08-03T10:57:14.747Z,29.35
2022-08-03T10:58:53.139Z,27.82
2022-08-03T11:00:00.613Z,27.67
2022-08-03T11:01:03.349Z,27.62
2022-08-03T11:02:08.316Z,27.61
2022-08-03T11:03:10.982Z,27.91
2022-08-03T11:04:17.057Z,27.73
2022-08-03T11:05:33.089Z,28.16
2022-08-03T11:06:37.572Z,27.36
2022-08-03T11:07:39.347Z,27.67
2022-08-03T11:08:41.035Z,27.97
2022-08-03T11:09:44.173Z,27.51
2022-08-03T11:10:46.929Z,27.44
2022-08-03T11:11:48.920Z,27.57
2022-08-03T11:12:50.783Z,27.56
2022-08-03T11:14:07.623Z,27.76
2022-08-03T11:15:09.399Z,27.44
2022-08-03T11:16:22.338Z,27.81
2022-08-03T11:17:24.677Z,27.25
2022-08-03T11:18:26.976Z,26.67
2022-08-03T11:19:57.971Z,26.57
2022-08-03T11:21:01.617Z,25.81
2022-08-03T11:22:03.360Z,25.59
2022-08-03T11:23:05.257Z,26.11
2022-08-03T11:24:07.146Z,26.22
2022-08-03T11:25:08.842Z,24.70
2022-08-03T11:26:30.667Z,25.02
2022-08-03T11:27:35.918Z,25.11
2022-08-03T11:28:41.096Z,25.63
2022-08-03T11:30:06.559Z,25.84
2022-08-03T11:31:47.960Z,25.77
2022-08-03T11:32:46.830Z,25.61
2022-08-03T11:34:07.106Z,25.44
2022-08-03T11:35:21.954Z,25.41
2022-08-03T11:36:32.562Z,25.71
2022-08-03T11:37:34.949Z,26.07
2022-08-03T11:39:16.957Z,25.61
2022-08-03T11:40:40.426Z,25.77
2022-08-03T11:41:45.364Z,25.58
2022-08-03T11:42:48.442Z,24.95
2022-08-03T11:43:49.971Z,25.85
2022-08-03T11:44:56.454Z,25.98
2022-08-03T11:45:58.019Z,25.76
2022-08-03T11:47:00.722Z,25.22
2022-08-03T11:48:15.895Z,24.59
2022-08-03T11:49:23.642Z,24.62
2022-08-03T11:50:25.763Z,24.11
2022-08-03T11:51:29.189Z,23.52
2022-08-03T11:52:40.110Z,23.39
2022-08-03T11:53:43.891Z,24.03
2022-08-03T11:54:46.902Z,23.86
2022-08-03T11:55:49.046Z,23.02
2022-08-03T11:56:51.022Z,22.84
2022-08-03T11:59:15.256Z,22.82
2022-08-03T11:59:19.989Z,23.30
2022-08-03T12:00:31.935Z,23.18
2022-08-03T12:01:33.621Z,23.24
2022-08-03T12:02:35.462Z,23.28
2022-08-03T12:03:37.335Z,23.35
2022-08-03T12:04:52.209Z,22.76
2022-08-03T12:05:54.783Z,23.39
2022-08-03T12:07:00.366Z,23.44
2022-08-03T12:08:04.373Z,21.96
2022-08-03T12:09:16.872Z,21.74
2022-08-03T12:10:18.449Z,22.18
2022-08-03T12:11:20.043Z,22.56
2022-08-03T12:12:21.758Z,22.40
2022-08-03T12:14:35.673Z,22.72
2022-08-03T12:14:58.447Z,22.64
2022-08-03T12:16:00.009Z,22.14
2022-08-03T12:17:01.796Z,21.71
2022-08-03T12:18:13.142Z,19.93
2022-08-03T12:19:14.997Z,19.47
2022-08-03T12:20:35.006Z,20.07
2022-08-03T12:21:57.225Z,20.25
2022-08-03T12:23:04.502Z,21.54
2022-08-03T12:24:06.449Z,22.14
2022-08-03T12:25:09.523Z,22.44
2022-08-03T12:26:11.193Z,22.65
2022-08-03T12:27:12.801Z,22.11
2022-08-03T12:28:36.582Z,21.93
2022-08-03T12:29:39.474Z,22.77
2022-08-03T12:30:41.665Z,22.17
2022-08-03T12:31:43.207Z,22.83
2022-08-03T12:32:45.034Z,22.52
2022-08-03T12:33:58.745Z,22.66
2022-08-03T12:35:02.125Z,21.75
2022-08-03T12:36:07.112Z,22.22
2022-08-03T12:37:22.349Z,22.02
2022-08-03T12:38:24.392Z,21.96
2022-08-03T12:39:31.360Z,22.58
2022-08-03T12:40:33.047Z,22.79
2022-08-03T12:41:39.151Z,23.14
2022-08-03T12:42:40.957Z,23.06
2022-08-03T12:43:49.558Z,21.26
2022-08-03T12:44:51.232Z,21.73
2022-08-03T12:46:12.611Z,22.07
2022-08-03T12:47:15.828Z,22.39
2022-08-03T12:48:17.302Z,22.16
2022-08-03T12:49:19.877Z,22.29
2022-08-03T12:50:36.083Z,21.30
2022-08-03T12:52:03.919Z,20.29
2022-08-03T12:53:10.013Z,20.84
2022-08-03T12:54:24.814Z,21.41
2022-08-03T12:55:57.767Z,21.41
2022-08-03T12:57:16.052Z,20.82
2022-08-03T12:58:34.196Z,20.89
2022-08-03T12:59:53.551Z,21.20
2022-08-03T13:00:56.159Z,21.47
2022-08-03T13:01:58.249Z,21.78
2022-08-03T13:04:33.742Z,22.58
2022-08-03T13:05:45.141Z,22.82
2022-08-03T13:06:57.978Z,22.46
2022-08-03T13:08:04.980Z,22.14
2022-08-03T13:09:08.583Z,22.24
2022-08-03T13:10:10.947Z,21.78
2022-08-03T13:11:23.489Z,21.67
2022-08-03T13:12:49.564Z,21.39
2022-08-03T13:13:52.967Z,21.41
2022-08-03T13:14:59.979Z,21.40
2022-08-03T13:16:01.491Z,21.21
2022-08-03T13:17:03.989Z,21.73
2022-08-03T13:18:05.587Z,21.31
2022-08-03T13:19:15.589Z,21.23
2022-08-03T13:20:17.560Z,20.89
2022-08-03T13:21:20.957Z,21.06
2022-08-03T13:22:24.871Z,21.08
2022-08-03T13:23:26.417Z,21.33
2022-08-03T13:24:27.982Z,21.18
2022-08-03T13:25:31.950Z,21.21
2022-08-03T13:26:33.402Z,21.21
2022-08-03T13:28:03.979Z,21.52
2022-08-03T13:28:56.287Z,20.62
2022-08-03T13:29:57.918Z,21.05
2022-08-03T13:30:59.469Z,21.03
2022-08-03T13:32:02.824Z,20.88
2022-08-03T13:33:04.271Z,21.04
2022-08-03T13:34:06.069Z,20.72
2022-08-03T13:35:09.101Z,20.39
2022-08-03T13:36:10.530Z,20.16
2022-08-03T13:37:12.386Z,19.96
2022-08-03T13:38:15.334Z,20.12
2022-08-03T13:39:20.258Z,20.63
2022-08-03T13:40:23.644Z,20.83
2022-08-03T13:41:31.534Z,20.67
2022-08-03T13:42:35.554Z,20.63
2022-08-03T13:43:37.478Z,21.33
2022-08-03T13:44:38.956Z,21.04
2022-08-03T13:45:40.418Z,20.74
2022-08-03T13:46:42.095Z,21.19
2022-08-03T13:47:43.606Z,21.13
2022-08-03T13:48:45.426Z,21.16
2022-08-03T13:49:56.987Z,21.44
2022-08-03T13:51:11.864Z,21.47
2022-08-03T13:52:23.661Z,21.11
2022-08-03T13:53:25.156Z,21.07
2022-08-03T13:54:27.189Z,21.68
2022-08-03T13:55:28.648Z,21.30
2022-08-03T13:56:30.782Z,20.57
2022-08-03T13:58:11.433Z,20.34
2022-08-03T13:58:54.601Z,20.76
2022-08-03T13:59:56.117Z,20.52
2022-08-03T14:00:57.622Z,20.46
2022-08-03T14:01:59.283Z,20.38
2022-08-03T14:03:09.067Z,20.44
2022-08-03T14:04:15.753Z,20.45
2022-08-03T14:05:24.169Z,20.51
2022-08-03T14:06:26.077Z,20.37
2022-08-03T14:07:27.537Z,20.27
2022-08-03T14:08:29.157Z,20.93
2022-08-03T14:09:30.939Z,21.10
2022-08-03T14:10:41.242Z,21.06
2022-08-03T14:12:06.832Z,21.48
2022-08-03T14:13:06.853Z,21.21
2022-08-03T14:14:08.825Z,21.78
2022-08-03T14:15:12.996Z,21.58
2022-08-03T14:16:16.935Z,21.35
2022-08-03T14:17:19.226Z,21.55
2022-08-03T14:18:29.239Z,21.54
2022-08-03T14:19:44.888Z,21.66